createdAt,value
2022-09-22T00:00:13.468Z,10.98
2022-09-22T00:01:13.572Z,11.01
2022-09-22T00:02:13.505Z,11.03
2022-09-22T00:03:13.446Z,11.04
2022-09-22T00:04:13.458Z,11.04
2022-09-22T00:05:13.432Z,11.08
2022-09-22T00:06:13.422Z,11.08
2022-09-22T00:07:13.400Z,11.05
2022-09-22T00:08:13.393Z,11.04
2022-09-22T00:09:13.429Z,11.08
2022-09-22T00:10:13.382Z,11.09
2022-09-22T00:11:13.351Z,11.05
2022-09-22T00:12:13.353Z,11.05
2022-09-22T00:13:13.341Z,11.09
2022-09-22T00:14:13.323Z,11.08
2022-09-22T00:15:13.341Z,11.08
2022-09-22T00:16:13.343Z,11.05
2022-09-22T00:17:13.295Z,11.08
2022-09-22T00:18:13.286Z,11.08
2022-09-22T00:19:13.318Z,11.04
2022-09-22T00:20:13.350Z,11.04
2022-09-22T00:21:13.268Z,11.04
2022-09-22T00:22:13.271Z,11.04
2022-09-22T00:23:13.236Z,11.01
2022-09-22T00:24:13.218Z,10.97
2022-09-22T00:25:13.205Z,10.93
2022-09-22T00:26:13.212Z,10.94
2022-09-22T00:27:13.261Z,10.94
2022-09-22T00:28:13.168Z,10.87
2022-09-22T00:29:13.175Z,10.86
2022-09-22T00:30:13.171Z,10.83
2022-09-22T00:31:13.174Z,10.85
2022-09-22T00:32:13.131Z,10.90
2022-09-22T00:33:13.190Z,10.93
2022-09-22T00:34:13.139Z,10.91
2022-09-22T00:35:13.114Z,10.93
2022-09-22T00:36:13.101Z,10.87
2022-09-22T00:37:13.078Z,10.80
2022-09-22T00:38:13.082Z,10.80
2022-09-22T00:39:13.113Z,10.80
2022-09-22T00:40:13.075Z,10.82
2022-09-22T00:41:13.040Z,10.82
2022-09-22T00:42:13.033Z,10.85
2022-09-22T00:43:13.014Z,10.87
2022-09-22T00:44:13.029Z,10.80
2022-09-22T00:45:13.004Z,10.79
2022-09-22T00:46:12.999Z,10.76
2022-09-22T00:47:12.979Z,10.78
2022-09-22T00:48:13.013Z,10.78
2022-09-22T00:49:12.945Z,10.72
2022-09-22T00:50:12.952Z,10.68
2022-09-22T00:51:12.950Z,10.70
2022-09-22T00:52:12.924Z,10.70
2022-09-22T00:53:12.907Z,10.72
2022-09-22T00:54:12.891Z,10.70
2022-09-22T00:55:12.936Z,10.72
2022-09-22T00:56:12.862Z,10.72
2022-09-22T00:57:12.864Z,10.68
2022-09-22T00:58:12.865Z,10.70
2022-09-22T00:59:12.877Z,10.67
2022-09-22T01:00:12.926Z,10.67
2022-09-22T01:01:12.903Z,10.65
2022-09-22T01:02:12.868Z,10.65
2022-09-22T01:03:12.804Z,10.62
2022-09-22T01:04:12.800Z,10.62
2022-09-22T01:05:12.777Z,10.62
2022-09-22T01:06:12.922Z,10.62
2022-09-22T01:07:12.760Z,10.64
2022-09-22T01:08:12.745Z,10.65
2022-09-22T01:09:12.739Z,10.65
2022-09-22T01:10:12.715Z,10.64
2022-09-22T01:11:12.737Z,10.60
2022-09-22T01:12:12.788Z,10.60
2022-09-22T01:13:12.702Z,10.57
2022-09-22T01:14:12.690Z,10.55
2022-09-22T01:15:12.676Z,10.60
2022-09-22T01:16:12.769Z,10.52
2022-09-22T01:17:12.682Z,10.48
2022-09-22T01:18:12.650Z,10.49
2022-09-22T01:19:12.630Z,10.46
2022-09-22T01:20:12.667Z,10.46
2022-09-22T01:21:12.604Z,10.43
2022-09-22T01:22:12.611Z,10.43
2022-09-22T01:23:12.591Z,10.41
2022-09-22T01:24:12.569Z,10.39
2022-09-22T01:25:12.569Z,10.36
2022-09-22T01:26:12.574Z,10.31
2022-09-22T01:27:12.532Z,10.36
2022-09-22T01:28:12.534Z,10.38
2022-09-22T01:29:12.541Z,10.36
2022-09-22T01:30:12.502Z,10.31
2022-09-22T01:31:12.560Z,10.31
2022-09-22T01:32:12.512Z,10.34
2022-09-22T01:33:12.473Z,10.35
2022-09-22T01:34:12.471Z,10.34
2022-09-22T01:35:12.471Z,10.28
2022-09-22T01:36:12.450Z,10.30
2022-09-22T01:37:12.423Z,10.30
2022-09-22T01:38:12.448Z,10.27
2022-09-22T01:39:12.403Z,10.27
2022-09-22T01:40:12.455Z,10.24
2022-09-22T01:41:12.411Z,10.28
2022-09-22T01:42:12.373Z,10.26
2022-09-22T01:43:12.366Z,10.23
2022-09-22T01:44:12.395Z,10.26
2022-09-22T01:45:12.361Z,10.27
2022-09-22T01:46:12.403Z,10.28
2022-09-22T01:47:12.316Z,10.28
2022-09-22T01:48:12.305Z,10.27
2022-09-22T01:49:12.337Z,10.21
2022-09-22T01:50:12.296Z,10.17
2022-09-22T01:51:12.285Z,10.17
2022-09-22T01:52:12.277Z,10.18
2022-09-22T01:53:12.255Z,10.14
2022-09-22T01:54:12.286Z,10.16
2022-09-22T01:55:12.276Z,10.12
2022-09-22T01:56:12.227Z,10.12
2022-09-22T01:57:12.245Z,10.12
2022-09-22T01:58:12.206Z,10.14
2022-09-22T01:59:12.242Z,10.12
2022-09-22T02:00:12.177Z,10.16
2022-09-22T02:01:14.621Z,10.10
2022-09-22T02:02:12.213Z,10.10
2022-09-22T02:03:12.151Z,10.12
2022-09-22T02:04:12.152Z,10.17
2022-09-22T02:05:12.162Z,10.12
2022-09-22T02:06:12.138Z,10.05
2022-09-22T02:07:12.121Z,10.05
2022-09-22T02:08:12.093Z,10.02
2022-09-22T02:09:12.087Z,9.98
2022-09-22T02:10:12.111Z,9.99
2022-09-22T02:11:12.065Z,10.02
2022-09-22T02:12:12.053Z,9.98
2022-09-22T02:13:12.039Z,10.01
2022-09-22T02:14:12.039Z,10.02
2022-09-22T02:15:12.021Z,9.99
2022-09-22T02:16:12.174Z,9.96
2022-09-22T02:17:12.004Z,9.98
2022-09-22T02:18:11.999Z,9.94
2022-09-22T02:19:13.646Z,9.93
2022-09-22T02:20:11.974Z,9.87
2022-09-22T02:21:11.949Z,9.90
2022-09-22T02:22:12.013Z,9.93
2022-09-22T02:23:11.922Z,9.96
2022-09-22T02:24:11.937Z,9.93
2022-09-22T02:25:11.929Z,9.90
2022-09-22T02:26:11.984Z,9.88
2022-09-22T02:27:11.942Z,9.84
2022-09-22T02:28:11.885Z,9.85
2022-09-22T02:29:11.879Z,9.84
2022-09-22T02:30:11.867Z,9.88
2022-09-22T02:31:19.994Z,9.88
2022-09-22T02:32:12.946Z,9.90
2022-09-22T02:33:11.830Z,9.93
2022-09-22T02:34:11.822Z,9.94
2022-09-22T02:35:11.809Z,9.93
2022-09-22T02:36:11.807Z,9.93
2022-09-22T02:37:11.795Z,9.94
2022-09-22T02:38:11.788Z,9.98
2022-09-22T02:39:11.756Z,9.98
2022-09-22T02:40:11.818Z,9.98
2022-09-22T02:41:11.736Z,9.96
2022-09-22T02:42:11.777Z,9.96
2022-09-22T02:43:11.719Z,9.90
2022-09-22T02:44:11.715Z,9.87
2022-09-22T02:45:11.708Z,9.88
2022-09-22T02:46:11.736Z,9.88
2022-09-22T02:47:11.682Z,9.83
2022-09-22T02:48:11.709Z,9.78
2022-09-22T02:49:11.653Z,9.73
2022-09-22T02:50:11.637Z,9.63
2022-09-22T02:51:11.629Z,9.66
2022-09-22T02:52:11.629Z,9.66
2022-09-22T02:53:11.607Z,9.66
2022-09-22T02:54:11.630Z,9.69
2022-09-22T02:55:11.589Z,9.66
2022-09-22T02:56:11.659Z,9.69
2022-09-22T02:57:11.575Z,9.69
2022-09-22T02:58:11.630Z,9.69
2022-09-22T02:59:11.793Z,9.67
2022-09-22T03:00:11.542Z,9.69
2022-09-22T03:01:11.564Z,9.69
2022-09-22T03:02:11.532Z,9.70
2022-09-22T03:03:11.550Z,9.67
2022-09-22T03:04:11.500Z,9.69
2022-09-22T03:05:11.581Z,9.69
2022-09-22T03:06:11.479Z,9.72
2022-09-22T03:07:11.474Z,9.72
2022-09-22T03:08:11.454Z,9.72
2022-09-22T03:09:11.485Z,9.72
2022-09-22T03:10:11.438Z,9.69
2022-09-22T03:11:11.420Z,9.67
2022-09-22T03:12:11.406Z,9.69
2022-09-22T03:13:18.667Z,9.66
2022-09-22T03:14:12.412Z,9.65
2022-09-22T03:15:11.380Z,9.66
2022-09-22T03:16:11.454Z,9.62
2022-09-22T03:17:11.369Z,9.55
2022-09-22T03:18:11.350Z,9.52
2022-09-22T03:19:11.435Z,9.57
2022-09-22T03:20:11.360Z,9.57
2022-09-22T03:21:11.321Z,9.54
2022-09-22T03:22:11.311Z,9.59
2022-09-22T03:23:11.301Z,9.50
2022-09-22T03:24:11.274Z,9.45
2022-09-22T03:25:11.275Z,9.45
2022-09-22T03:26:11.327Z,9.45
2022-09-22T03:27:11.257Z,9.48
2022-09-22T03:28:11.238Z,9.47
2022-09-22T03:29:11.240Z,9.48
2022-09-22T03:30:11.246Z,9.50
2022-09-22T03:31:11.294Z,9.57
2022-09-22T03:32:11.219Z,9.60
2022-09-22T03:33:11.207Z,9.54
2022-09-22T03:34:11.184Z,9.50
2022-09-22T03:35:11.170Z,9.55
2022-09-22T03:36:11.157Z,9.55
2022-09-22T03:37:11.137Z,9.55
2022-09-22T03:38:11.157Z,9.55
2022-09-22T03:39:11.130Z,9.54
2022-09-22T03:40:11.164Z,9.55
2022-09-22T03:41:11.101Z,9.55
2022-09-22T03:42:11.095Z,9.54
2022-09-22T03:43:16.487Z,9.52
2022-09-22T03:44:12.060Z,9.48
2022-09-22T03:45:11.059Z,9.47
2022-09-22T03:46:11.087Z,9.51
2022-09-22T03:47:11.041Z,9.50
2022-09-22T03:48:11.067Z,9.45
2022-09-22T03:49:11.050Z,9.44
2022-09-22T03:50:11.006Z,9.44
2022-09-22T03:51:11.001Z,9.44
2022-09-22T03:52:10.972Z,9.37
2022-09-22T03:53:10.972Z,9.29
2022-09-22T03:54:11.007Z,9.26
2022-09-22T03:55:10.955Z,9.26
2022-09-22T03:56:10.942Z,9.27
2022-09-22T03:57:10.931Z,9.30
2022-09-22T03:58:10.942Z,9.33
2022-09-22T03:59:10.914Z,9.34
2022-09-22T04:00:10.905Z,9.32
2022-09-22T04:01:10.901Z,9.30
2022-09-22T04:02:10.937Z,9.30
2022-09-22T04:03:10.951Z,9.29
2022-09-22T04:04:10.859Z,9.32
2022-09-22T04:05:10.898Z,9.36
2022-09-22T04:06:10.838Z,9.34
2022-09-22T04:07:10.825Z,9.34
2022-09-22T04:08:10.842Z,9.34
2022-09-22T04:09:10.812Z,9.36
2022-09-22T04:10:10.799Z,9.34
2022-09-22T04:11:10.906Z,9.33
2022-09-22T04:12:10.785Z,9.29
2022-09-22T04:13:10.806Z,9.29
2022-09-22T04:14:10.748Z,9.32
2022-09-22T04:15:10.737Z,9.34
2022-09-22T04:16:10.727Z,9.32
2022-09-22T04:17:10.715Z,9.33
2022-09-22T04:18:10.707Z,9.27
2022-09-22T04:19:10.709Z,9.29
2022-09-22T04:20:10.709Z,9.32
2022-09-22T04:21:10.668Z,9.34
2022-09-22T04:22:10.671Z,9.32
2022-09-22T04:23:10.690Z,9.30
2022-09-22T04:24:10.676Z,9.30
2022-09-22T04:25:10.635Z,9.34
2022-09-22T04:26:10.634Z,9.34
2022-09-22T04:27:25.910Z,9.34
2022-09-22T04:28:11.588Z,9.34
2022-09-22T04:29:10.650Z,9.29
2022-09-22T04:30:10.653Z,9.30
2022-09-22T04:31:10.604Z,9.30
2022-09-22T04:32:10.558Z,9.32
2022-09-22T04:33:10.548Z,9.27
2022-09-22T04:34:10.568Z,9.29
2022-09-22T04:35:10.511Z,9.29
2022-09-22T04:36:10.522Z,9.23
2022-09-22T04:37:10.492Z,9.26
2022-09-22T04:38:10.496Z,9.24
2022-09-22T04:39:10.560Z,9.22
2022-09-22T04:40:10.516Z,9.23
2022-09-22T04:41:10.461Z,9.18
2022-09-22T04:42:10.465Z,9.19
2022-09-22T04:43:10.463Z,9.22
2022-09-22T04:44:10.420Z,9.26
2022-09-22T04:45:10.426Z,9.29
2022-09-22T04:46:10.452Z,9.23
2022-09-22T04:47:10.396Z,9.19
2022-09-22T04:48:10.401Z,9.22
2022-09-22T04:49:10.365Z,9.26
2022-09-22T04:50:10.430Z,9.27
2022-09-22T04:51:10.352Z,9.30
2022-09-22T04:52:10.355Z,9.27
2022-09-22T04:53:10.314Z,9.27
2022-09-22T04:54:10.331Z,9.30
2022-09-22T04:55:10.375Z,9.27
2022-09-22T04:56:10.313Z,9.26
2022-09-22T04:57:10.274Z,9.23
2022-09-22T04:58:10.288Z,9.26
2022-09-22T04:59:10.267Z,9.29
2022-09-22T05:00:10.247Z,9.24
2022-09-22T05:01:10.325Z,9.24
2022-09-22T05:02:10.235Z,9.27
2022-09-22T05:03:10.291Z,9.26
2022-09-22T05:04:10.237Z,9.24
2022-09-22T05:05:10.217Z,9.22
2022-09-22T05:06:10.189Z,9.23
2022-09-22T05:07:10.219Z,9.23
2022-09-22T05:08:10.242Z,9.22
2022-09-22T05:09:10.160Z,9.19
2022-09-22T05:10:10.174Z,9.22
2022-09-22T05:11:10.137Z,9.23
2022-09-22T05:12:10.147Z,9.19
2022-09-22T05:13:10.145Z,9.18
2022-09-22T05:14:10.109Z,9.19
2022-09-22T05:15:10.109Z,9.23
2022-09-22T05:16:10.144Z,9.27
2022-09-22T05:17:10.067Z,9.30
2022-09-22T05:18:10.103Z,9.30
2022-09-22T05:19:10.050Z,9.30
2022-09-22T05:20:10.040Z,9.33
2022-09-22T05:21:10.020Z,9.33
2022-09-22T05:22:10.022Z,9.36
2022-09-22T05:23:10.010Z,9.37
2022-09-22T05:24:10.052Z,9.37
2022-09-22T05:25:10.009Z,9.36
2022-09-22T05:26:09.976Z,9.34
2022-09-22T05:27:09.972Z,9.36
2022-09-22T05:28:09.971Z,9.34
2022-09-22T05:29:09.943Z,9.36
2022-09-22T05:30:09.960Z,9.34
2022-09-22T05:31:09.923Z,9.36
2022-09-22T05:32:09.939Z,9.40
2022-09-22T05:33:09.932Z,9.36
2022-09-22T05:34:09.893Z,9.40
2022-09-22T05:35:09.924Z,9.40
2022-09-22T05:36:09.876Z,9.41
2022-09-22T05:37:09.861Z,9.41
2022-09-22T05:38:09.852Z,9.40
2022-09-22T05:39:09.833Z,9.40
2022-09-22T05:40:09.859Z,9.34
2022-09-22T05:41:09.883Z,9.34
2022-09-22T05:42:11.146Z,9.34
2022-09-22T05:43:09.786Z,9.27
2022-09-22T05:44:09.795Z,9.29
2022-09-22T05:45:09.777Z,9.30
2022-09-22T05:46:09.865Z,9.36
2022-09-22T05:47:09.772Z,9.34
2022-09-22T05:48:09.746Z,9.36
2022-09-22T05:49:09.737Z,9.33
2022-09-22T05:50:09.750Z,9.33
2022-09-22T05:51:09.712Z,9.32
2022-09-22T05:52:09.773Z,9.26
2022-09-22T05:53:09.741Z,9.27
2022-09-22T05:54:09.669Z,9.27
2022-09-22T05:55:09.655Z,9.24
2022-09-22T05:56:09.659Z,9.30
2022-09-22T05:57:09.652Z,9.33
2022-09-22T05:58:09.654Z,9.37
2022-09-22T05:59:09.608Z,9.41
2022-09-22T06:00:09.613Z,9.41
2022-09-22T06:01:09.677Z,9.44
2022-09-22T06:02:23.862Z,9.34
2022-09-22T06:03:10.698Z,9.27
2022-09-22T06:04:09.579Z,9.23
2022-09-22T06:05:09.600Z,9.15
2022-09-22T06:06:09.548Z,9.12
2022-09-22T06:07:09.526Z,9.09
2022-09-22T06:08:09.536Z,9.06
2022-09-22T06:09:09.555Z,9.04
2022-09-22T06:10:09.492Z,9.01
2022-09-22T06:11:09.511Z,8.98
2022-09-22T06:12:09.479Z,8.99
2022-09-22T06:13:09.471Z,9.01
2022-09-22T06:14:09.519Z,9.06
2022-09-22T06:15:09.524Z,9.08
2022-09-22T06:16:09.485Z,9.09
2022-09-22T06:17:09.425Z,9.11
2022-09-22T06:18:14.608Z,9.09
2022-09-22T06:19:10.407Z,9.09
2022-09-22T06:20:09.417Z,9.06
2022-09-22T06:21:09.406Z,9.06
2022-09-22T06:22:09.384Z,9.06
2022-09-22T06:23:09.375Z,9.04
2022-09-22T06:24:09.373Z,9.04
2022-09-22T06:25:09.342Z,9.06
2022-09-22T06:26:09.452Z,9.08
2022-09-22T06:27:09.329Z,9.11
2022-09-22T06:28:09.389Z,9.12
2022-09-22T06:29:09.303Z,9.15
2022-09-22T06:30:09.297Z,9.15
2022-09-22T06:31:09.277Z,9.18
2022-09-22T06:32:09.334Z,9.18
2022-09-22T06:33:09.254Z,9.22
2022-09-22T06:34:09.249Z,9.26
2022-09-22T06:35:09.244Z,9.32
2022-09-22T06:36:09.214Z,9.33
2022-09-22T06:37:09.274Z,9.33
2022-09-22T06:38:09.193Z,9.36
2022-09-22T06:39:09.193Z,9.37
2022-09-22T06:40:11.879Z,9.36
2022-09-22T06:41:09.165Z,9.36
2022-09-22T06:42:09.203Z,9.37
2022-09-22T06:43:09.147Z,9.36
2022-09-22T06:44:09.199Z,9.37
2022-09-22T06:45:09.130Z,9.40
2022-09-22T06:46:09.154Z,9.41
2022-09-22T06:47:09.133Z,9.44
2022-09-22T06:48:10.541Z,9.45
2022-09-22T06:49:09.078Z,9.47
2022-09-22T06:50:09.074Z,9.51
2022-09-22T06:51:11.819Z,9.55
2022-09-22T06:52:09.086Z,9.55
2022-09-22T06:53:09.047Z,9.55
2022-09-22T06:54:09.078Z,9.57
2022-09-22T06:55:09.021Z,9.59
2022-09-22T06:56:09.009Z,9.57
2022-09-22T06:57:09.010Z,9.57
2022-09-22T06:58:09.034Z,9.60
2022-09-22T06:59:10.553Z,9.60
2022-09-22T07:00:08.968Z,9.62
2022-09-22T07:01:09.978Z,9.69
2022-09-22T07:02:09.144Z,9.77
2022-09-22T07:03:09.151Z,9.77
2022-09-22T07:04:08.937Z,9.73
2022-09-22T07:05:08.924Z,9.75
2022-09-22T07:06:08.903Z,9.77
2022-09-22T07:07:08.941Z,9.83
2022-09-22T07:08:09.080Z,9.85
2022-09-22T07:09:08.894Z,9.87
2022-09-22T07:10:08.861Z,9.87
2022-09-22T07:11:08.843Z,9.88
2022-09-22T07:12:08.843Z,9.88
2022-09-22T07:13:08.892Z,9.91
2022-09-22T07:14:08.983Z,9.90
2022-09-22T07:15:08.830Z,9.91
2022-09-22T07:16:08.815Z,9.94
2022-09-22T07:17:08.816Z,9.94
2022-09-22T07:18:08.850Z,9.96
2022-09-22T07:19:08.770Z,10.01
2022-09-22T07:20:08.774Z,10.03
2022-09-22T07:21:08.755Z,10.02
2022-09-22T07:22:08.772Z,10.03
2022-09-22T07:23:08.726Z,10.05
2022-09-22T07:24:08.705Z,10.06
2022-09-22T07:25:08.683Z,10.09
2022-09-22T07:26:08.711Z,10.14
2022-09-22T07:27:08.715Z,10.14
2022-09-22T07:28:08.730Z,10.14
2022-09-22T07:29:08.761Z,10.17
2022-09-22T07:30:08.660Z,10.20
2022-09-22T07:31:08.672Z,10.21
2022-09-22T07:32:08.707Z,10.24
2022-09-22T07:33:08.621Z,10.26
2022-09-22T07:34:08.658Z,10.28
2022-09-22T07:35:08.613Z,10.30
2022-09-22T07:36:08.577Z,10.34
2022-09-22T07:37:08.582Z,10.39
2022-09-22T07:38:08.567Z,10.41
2022-09-22T07:39:08.553Z,10.45
2022-09-22T07:40:08.682Z,10.46
2022-09-22T07:41:08.537Z,10.49
2022-09-22T07:42:08.510Z,10.52
2022-09-22T07:43:08.512Z,10.54
2022-09-22T07:44:08.489Z,10.54
2022-09-22T07:45:08.608Z,10.58
2022-09-22T07:46:08.613Z,10.60
2022-09-22T07:47:08.564Z,10.60
2022-09-22T07:48:08.437Z,10.60
2022-09-22T07:49:08.448Z,10.65
2022-09-22T07:50:08.478Z,10.75
2022-09-22T07:51:10.694Z,10.78
2022-09-22T07:52:09.424Z,10.76
2022-09-22T07:53:08.413Z,10.79
2022-09-22T07:54:08.399Z,10.79
2022-09-22T07:55:08.443Z,10.85
2022-09-22T07:56:08.373Z,10.86
2022-09-22T07:57:08.361Z,10.85
2022-09-22T07:58:08.340Z,10.86
2022-09-22T07:59:08.331Z,10.91
2022-09-22T08:00:08.352Z,10.94
2022-09-22T08:01:08.378Z,10.95
2022-09-22T08:02:08.332Z,10.98
2022-09-22T08:03:08.301Z,11.01
2022-09-22T08:04:08.275Z,11.03
2022-09-22T08:05:08.295Z,11.08
2022-09-22T08:06:08.247Z,11.11
2022-09-22T08:07:08.253Z,11.11
2022-09-22T08:08:08.318Z,11.13
2022-09-22T08:09:08.256Z,11.13
2022-09-22T08:10:08.212Z,11.15
2022-09-22T08:11:08.227Z,11.25
2022-09-22T08:12:08.205Z,11.30
2022-09-22T08:13:08.164Z,11.31
2022-09-22T08:14:08.268Z,11.37
2022-09-22T08:15:08.157Z,11.37
2022-09-22T08:16:08.230Z,11.38
2022-09-22T08:17:08.147Z,11.36
2022-09-22T08:18:08.189Z,11.37
2022-09-22T08:19:08.118Z,11.43
2022-09-22T08:20:08.128Z,11.46
2022-09-22T08:21:08.130Z,11.48
2022-09-22T08:22:08.080Z,11.45
2022-09-22T08:23:08.077Z,11.46
2022-09-22T08:24:08.083Z,11.48
2022-09-22T08:25:08.051Z,11.52
2022-09-22T08:26:08.037Z,11.51
2022-09-22T08:27:08.446Z,11.49
2022-09-22T08:28:08.053Z,11.55
2022-09-22T08:29:08.049Z,11.58
2022-09-22T08:30:07.998Z,11.64
2022-09-22T08:31:08.048Z,11.66
2022-09-22T08:32:07.977Z,11.70
2022-09-22T08:33:08.004Z,11.74
2022-09-22T08:34:07.968Z,11.79
2022-09-22T08:35:07.951Z,11.80
2022-09-22T08:36:07.944Z,11.85
2022-09-22T08:37:08.024Z,11.91
2022-09-22T08:38:12.624Z,11.93
2022-09-22T08:39:08.909Z,11.97
2022-09-22T08:40:07.987Z,12.03
2022-09-22T08:41:07.883Z,12.04
2022-09-22T08:42:07.912Z,12.13
2022-09-22T08:43:07.850Z,12.22
2022-09-22T08:44:07.901Z,12.18
2022-09-22T08:45:07.850Z,12.18
2022-09-22T08:46:07.839Z,12.18
2022-09-22T08:47:07.829Z,12.22
2022-09-22T08:48:07.814Z,12.22
2022-09-22T08:49:07.834Z,12.26
2022-09-22T08:50:07.812Z,12.30
2022-09-22T08:51:07.774Z,12.30
2022-09-22T08:52:07.753Z,12.33
2022-09-22T08:53:07.929Z,12.32
2022-09-22T08:54:07.815Z,12.33
2022-09-22T08:55:07.757Z,12.33
2022-09-22T08:56:07.722Z,12.36
2022-09-22T08:57:07.715Z,12.40
2022-09-22T08:58:07.704Z,12.44
2022-09-22T08:59:07.767Z,12.48
2022-09-22T09:00:07.784Z,12.54
2022-09-22T09:01:07.670Z,12.54
2022-09-22T09:02:07.749Z,12.62
2022-09-22T09:03:07.676Z,12.68
2022-09-22T09:04:07.667Z,12.72
2022-09-22T09:05:07.624Z,12.76
2022-09-22T09:06:07.619Z,12.76
2022-09-22T09:07:07.600Z,12.76
2022-09-22T09:08:07.604Z,12.77
2022-09-22T09:09:07.607Z,12.80
2022-09-22T09:10:07.568Z,12.80
2022-09-22T09:11:07.612Z,12.81
2022-09-22T09:12:07.537Z,12.79
2022-09-22T09:13:07.527Z,12.80
2022-09-22T09:14:07.570Z,12.80
2022-09-22T09:15:07.596Z,12.86
2022-09-22T09:16:07.587Z,12.95
2022-09-22T09:17:07.893Z,13.13
2022-09-22T09:18:07.481Z,13.21
2022-09-22T09:19:07.471Z,13.35
2022-09-22T09:20:07.471Z,13.43
2022-09-22T09:21:07.455Z,13.47
2022-09-22T09:22:07.462Z,13.55
2022-09-22T09:23:07.433Z,13.61
2022-09-22T09:25:23.930Z,13.65
2022-09-22T09:26:08.433Z,13.61
2022-09-22T09:27:07.450Z,13.64
2022-09-22T09:28:07.374Z,13.67
2022-09-22T09:29:07.661Z,13.68
2022-09-22T09:30:07.372Z,13.72
2022-09-22T09:31:07.411Z,13.72
2022-09-22T09:32:07.364Z,13.68
2022-09-22T09:33:07.332Z,13.65
2022-09-22T09:34:07.321Z,13.67
2022-09-22T09:35:07.311Z,13.63
2022-09-22T09:36:07.351Z,13.63
2022-09-22T09:37:07.307Z,13.65
2022-09-22T09:38:07.280Z,13.67
2022-09-22T09:39:07.254Z,13.72
2022-09-22T09:40:07.287Z,13.86
2022-09-22T09:41:07.226Z,13.94
2022-09-22T09:42:07.240Z,13.96
2022-09-22T09:43:07.224Z,13.93
2022-09-22T09:44:07.186Z,13.90
2022-09-22T09:45:07.241Z,13.93
2022-09-22T09:46:07.251Z,13.97
2022-09-22T09:47:07.199Z,13.98
2022-09-22T09:48:07.157Z,14.03
2022-09-22T09:49:07.157Z,14.05
2022-09-22T09:50:07.197Z,14.11
2022-09-22T09:51:07.123Z,14.15
2022-09-22T09:52:07.114Z,14.16
2022-09-22T09:53:08.706Z,14.26
2022-09-22T09:54:07.356Z,14.33
2022-09-22T09:55:07.086Z,14.33
2022-09-22T09:56:07.077Z,14.33
2022-09-22T09:57:07.077Z,14.31
2022-09-22T09:58:07.099Z,14.30
2022-09-22T09:59:07.223Z,14.28
2022-09-22T10:00:07.031Z,14.27
2022-09-22T10:01:07.005Z,14.27
2022-09-22T10:02:07.044Z,14.26
2022-09-22T10:03:07.001Z,14.27
2022-09-22T10:04:06.992Z,14.36
2022-09-22T10:05:06.970Z,14.40
2022-09-22T10:06:06.961Z,14.46
2022-09-22T10:07:06.969Z,14.46
2022-09-22T10:08:06.958Z,14.45
2022-09-22T10:09:07.001Z,14.44
2022-09-22T10:10:06.911Z,14.41
2022-09-22T10:11:06.898Z,14.41
2022-09-22T10:12:06.934Z,14.41
2022-09-22T10:13:06.891Z,14.40
2022-09-22T10:14:06.872Z,14.37
2022-09-22T10:15:06.871Z,14.34
2022-09-22T10:16:07.010Z,14.34
2022-09-22T10:17:06.873Z,14.37
2022-09-22T10:18:06.864Z,14.38
2022-09-22T10:19:06.833Z,14.37
2022-09-22T10:20:06.833Z,14.37
2022-09-22T10:21:06.800Z,14.36
2022-09-22T10:22:06.783Z,14.34
2022-09-22T10:23:06.833Z,14.33
2022-09-22T10:24:06.878Z,14.34
2022-09-22T10:25:06.773Z,14.37
2022-09-22T10:26:06.735Z,14.36
2022-09-22T10:27:06.870Z,14.40
2022-09-22T10:28:06.716Z,14.44
2022-09-22T10:29:06.736Z,14.49
2022-09-22T10:30:06.699Z,14.55
2022-09-22T10:31:06.770Z,14.53
2022-09-22T10:32:06.687Z,14.55
2022-09-22T10:33:06.667Z,14.58
2022-09-22T10:34:06.759Z,14.59
2022-09-22T10:35:06.636Z,14.63
2022-09-22T10:36:09.408Z,14.70
2022-09-22T10:37:07.629Z,14.73
2022-09-22T10:38:06.646Z,14.79
2022-09-22T10:39:06.630Z,14.86
2022-09-22T10:40:06.629Z,14.90
2022-09-22T10:41:06.590Z,14.95
2022-09-22T10:42:06.571Z,15.01
2022-09-22T10:43:06.568Z,15.04
2022-09-22T10:44:27.723Z,15.07
2022-09-22T10:45:07.520Z,15.11
2022-09-22T10:46:06.561Z,15.17
2022-09-22T10:47:06.499Z,15.26
2022-09-22T10:48:06.559Z,15.32
2022-09-22T10:49:06.605Z,15.38
2022-09-22T10:50:06.482Z,15.41
2022-09-22T10:51:06.490Z,15.47
2022-09-22T10:52:06.460Z,15.45
2022-09-22T10:53:06.452Z,15.41
2022-09-22T10:54:06.468Z,15.35
2022-09-22T10:55:06.429Z,15.36
2022-09-22T10:56:06.410Z,15.40
2022-09-22T10:57:06.411Z,15.43
2022-09-22T10:58:06.444Z,15.44
2022-09-22T10:59:06.377Z,15.45
2022-09-22T11:00:07.014Z,15.47
2022-09-22T11:01:06.518Z,15.44
2022-09-22T11:02:06.343Z,15.41
2022-09-22T11:03:06.358Z,15.35
2022-09-22T11:04:06.601Z,15.32
2022-09-22T11:05:06.326Z,15.33
2022-09-22T11:06:06.325Z,15.38
2022-09-22T11:07:06.294Z,15.36
2022-09-22T11:08:06.287Z,15.36
2022-09-22T11:09:06.336Z,15.41
2022-09-22T11:10:06.276Z,15.43
2022-09-22T11:11:06.267Z,15.45
2022-09-22T11:12:06.318Z,15.48
2022-09-22T11:13:06.247Z,15.54
2022-09-22T11:14:06.320Z,15.62
2022-09-22T11:15:06.219Z,15.66
2022-09-22T11:16:06.281Z,15.69
2022-09-22T11:17:06.189Z,15.63
2022-09-22T11:18:06.189Z,15.63
2022-09-22T11:19:06.169Z,15.52
2022-09-22T11:20:06.179Z,15.47
2022-09-22T11:21:06.158Z,15.48
2022-09-22T11:22:06.135Z,15.44
2022-09-22T11:23:06.137Z,15.43
2022-09-22T11:24:06.148Z,15.40
2022-09-22T11:25:06.176Z,15.36
2022-09-22T11:26:06.109Z,15.33
2022-09-22T11:27:06.092Z,15.33
2022-09-22T11:28:06.084Z,15.33
2022-09-22T11:29:06.097Z,15.33
2022-09-22T11:30:11.074Z,15.36
2022-09-22T11:31:07.085Z,15.33
2022-09-22T11:32:06.029Z,15.36
2022-09-22T11:33:06.019Z,15.38
2022-09-22T11:34:06.032Z,15.36
2022-09-22T11:35:06.080Z,15.38
2022-09-22T11:36:06.000Z,15.41
2022-09-22T11:37:05.990Z,15.47
2022-09-22T11:38:05.966Z,15.51
2022-09-22T11:39:05.972Z,15.47
2022-09-22T11:40:06.055Z,15.51
2022-09-22T11:41:05.951Z,15.54
2022-09-22T11:42:05.935Z,15.56
2022-09-22T11:43:05.915Z,15.60
2022-09-22T11:44:05.952Z,15.70
2022-09-22T11:45:05.897Z,15.76
2022-09-22T11:46:05.949Z,15.90
2022-09-22T11:47:05.922Z,16.06
2022-09-22T11:48:05.866Z,16.13
2022-09-22T11:49:05.858Z,16.18
2022-09-22T11:50:05.844Z,16.22
2022-09-22T11:51:05.837Z,16.28
2022-09-22T11:52:05.848Z,16.26
2022-09-22T11:53:05.804Z,16.26
2022-09-22T11:54:05.958Z,16.28
2022-09-22T11:55:05.822Z,16.32
2022-09-22T11:56:05.765Z,16.36
2022-09-22T11:57:05.788Z,16.37
2022-09-22T11:58:05.775Z,16.40
2022-09-22T11:59:05.759Z,16.46
2022-09-22T12:00:05.734Z,16.43
2022-09-22T12:01:09.566Z,16.42
2022-09-22T12:02:06.838Z,16.36
2022-09-22T12:03:05.836Z,16.33
2022-09-22T12:04:05.690Z,16.32
2022-09-22T12:05:05.699Z,16.29
2022-09-22T12:06:05.731Z,16.28
2022-09-22T12:07:05.677Z,16.28
2022-09-22T12:08:05.690Z,16.29
2022-09-22T12:09:05.662Z,16.32
2022-09-22T12:10:05.631Z,16.37
2022-09-22T12:11:05.672Z,16.43
2022-09-22T12:12:05.612Z,16.42
2022-09-22T12:13:05.603Z,16.42
2022-09-22T12:14:05.630Z,16.43
2022-09-22T12:15:05.575Z,16.46
2022-09-22T12:16:05.603Z,16.47
2022-09-22T12:17:05.611Z,16.43
2022-09-22T12:18:05.563Z,16.43
2022-09-22T12:19:05.733Z,16.51
2022-09-22T12:20:05.524Z,16.49
2022-09-22T12:21:05.507Z,16.54
2022-09-22T12:22:05.512Z,16.57
2022-09-22T12:23:05.487Z,16.58
2022-09-22T12:24:05.532Z,16.58
2022-09-22T12:25:05.474Z,16.61
2022-09-22T12:26:05.450Z,16.70
2022-09-22T12:27:05.443Z,16.83
2022-09-22T12:28:05.450Z,16.91
2022-09-22T12:29:05.469Z,16.98
2022-09-22T12:30:08.835Z,17.02
2022-09-22T12:31:06.584Z,17.10
2022-09-22T12:32:05.391Z,17.09
2022-09-22T12:33:05.372Z,17.07
2022-09-22T12:34:05.642Z,17.04
2022-09-22T12:35:05.374Z,17.07
2022-09-22T12:36:05.351Z,17.06
2022-09-22T12:37:05.341Z,17.01
2022-09-22T12:38:05.315Z,16.99
2022-09-22T12:39:05.316Z,17.04
2022-09-22T12:40:05.386Z,17.06
2022-09-22T12:41:05.287Z,17.09
2022-09-22T12:42:05.279Z,17.10
2022-09-22T12:43:05.284Z,17.09
2022-09-22T12:44:05.268Z,17.12
2022-09-22T12:45:05.357Z,17.12
2022-09-22T12:46:05.277Z,17.12
2022-09-22T12:47:05.279Z,17.17
2022-09-22T12:48:07.152Z,17.31
2022-09-22T12:49:05.383Z,17.37
2022-09-22T12:50:05.218Z,17.41
2022-09-22T12:51:05.222Z,17.41
2022-09-22T12:52:05.174Z,17.43
2022-09-22T12:53:05.183Z,17.45
2022-09-22T12:54:05.281Z,17.45
2022-09-22T12:55:05.154Z,17.37
2022-09-22T12:56:05.135Z,17.37
2022-09-22T12:57:05.122Z,17.34
2022-09-22T12:58:05.120Z,17.35
2022-09-22T12:59:05.134Z,17.35
2022-09-22T13:00:05.179Z,17.34
2022-09-22T13:01:05.208Z,17.31
2022-09-22T13:02:05.229Z,17.28
2022-09-22T13:03:05.096Z,17.25